Time;durP1;ratioP1;P1;durP2;ratioP2;P2;SDS_P1;SDS_P2;PMS_P1;PMS_P2;Temp;Humidity;BMP_temperature;BMP_pressure;BME280_temperature;BME280_humidity;BME280_pressure;Samples;Min_cycle;Max_cycle;Signal;HPM_P1;HPM_P2
2021/10/09 00:00:32;;;;;;;13.43;5.97;;;;;;;11.20;84.65;98777.97;5058723;28;20021;-80
2021/10/09 00:02:57;;;;;;;13.05;6.20;;;;;;;11.23;84.75;98778.22;5061128;28;20413;-82
2021/10/09 00:05:23;;;;;;;16.25;7.07;;;;;;;11.22;84.36;98773.84;5061049;28;20057;-81
2021/10/09 00:07:48;;;;;;;17.27;7.15;;;;;;;11.26;84.15;98768.63;5062562;28;20447;-80
2021/10/09 00:10:24;;;;;;;15.45;6.80;;;;;;;11.28;84.36;98771.91;5059308;28;20036;-82
2021/10/09 00:12:49;;;;;;;17.25;6.85;;;;;;;11.19;85.16;98771.66;5059756;28;20102;-81
2021/10/09 00:15:14;;;;;;;16.33;6.97;;;;;;;11.11;87.65;98774.16;5057676;28;20474;-82
2021/10/09 00:17:40;;;;;;;11.90;6.63;;;;;;;11.04;90.98;98770.91;5057093;28;20386;-81
2021/10/09 00:20:06;;;;;;;15.23;7.18;;;;;;;11.02;92.44;98764.88;5056417;28;20033;-81
2021/10/09 00:22:31;;;;;;;19.35;7.82;;;;;;;10.98;93.74;98759.16;5057088;28;20460;-82
2021/10/09 00:24:57;;;;;;;15.65;7.10;;;;;;;11.06;94.72;98760.47;5056992;28;20028;-81
2021/10/09 00:27:22;;;;;;;23.60;7.97;;;;;;;11.06;95.99;98761.28;5056222;28;20029;-82
2021/10/09 00:29:48;;;;;;;16.70;8.30;;;;;;;10.94;97.94;98758.06;5055561;28;20145;-84
2021/10/09 00:32:13;;;;;;;21.00;8.57;;;;;;;10.84;99.98;98751.81;5055607;28;20025;-81
2021/10/09 00:34:38;;;;;;;21.95;9.35;;;;;;;10.55;100.00;98746.94;5054941;28;20052;-82
2021/10/09 00:37:04;;;;;;;23.83;9.38;;;;;;;10.45;100.00;98754.31;5053723;28;20024;-81
2021/10/09 00:39:29;;;;;;;20.80;9.15;;;;;;;10.38;100.00;98748.28;5053729;28;20394;-81
2021/10/09 00:41:55;;;;;;;17.90;9.40;;;;;;;10.38;100.00;98757.31;5019032;28;20403;-78
2021/10/09 00:44:20;;;;;;;18.00;10.48;;;;;;;10.43;100.00;98751.03;5015050;28;20077;-81
2021/10/09 00:46:46;;;;;;;23.83;10.23;;;;;;;10.46;100.00;98755.97;5015835;28;20121;-82
2021/10/09 00:49:15;;;;;;;15.63;8.30;;;;;;;10.41;100.00;98747.75;5016353;28;20041;-80
2021/10/09 00:51:46;;;;;;;20.48;8.77;;;;;;;10.38;100.00;98749.13;5014547;28;20057;-82
2021/10/09 00:54:14;;;;;;;14.95;8.23;;;;;;;10.47;100.00;98747.47;5013635;28;20091;-79
2021/10/09 00:56:43;;;;;;;18.70;8.52;;;;;;;10.41;100.00;98745.00;5013248;28;20049;-79
2021/10/09 00:59:13;;;;;;;22.08;8.73;;;;;;;10.45;100.00;98744.19;5011940;28;20155;-81
2021/10/09 01:01:41;;;;;;;18.10;8.50;;;;;;;10.46;100.00;98745.03;5013326;28;20063;-80
2021/10/09 01:04:07;;;;;;;20.95;9.07;;;;;;;10.45;100.00;98741.47;5012940;28;20502;-79
2021/10/09 01:06:33;;;;;;;17.98;9.77;;;;;;;10.48;100.00;98740.91;5012804;28;20053;-79
2021/10/09 01:08:59;;;;;;;16.65;8.82;;;;;;;10.48;100.00;98743.66;5012951;28;20117;-78
2021/10/09 01:11:24;;;;;;;17.08;8.57;;;;;;;10.38;100.00;98735.44;5012309;28;20080;-81
2021/10/09 01:13:50;;;;;;;22.67;8.98;;;;;;;10.35;100.00;98743.38;5012018;28;20787;-80
2021/10/09 01:16:27;;;;;;;20.50;10.05;;;;;;;10.27;100.00;98739.28;5013009;28;20030;-79
2021/10/09 01:18:54;;;;;;;19.42;8.85;;;;;;;10.37;100.00;98742.00;5012717;28;20037;-80
2021/10/09 01:21:21;;;;;;;18.05;9.68;;;;;;;10.32;100.00;98741.19;5010770;28;20127;-80
2021/10/09 01:23:47;;;;;;;17.52;8.73;;;;;;;10.34;100.00;98742.53;5010667;28;20048;-79
2021/10/09 01:26:12;;;;;;;20.42;8.73;;;;;;;10.29;100.00;98736.25;5012075;28;20030;-79
2021/10/09 01:28:42;;;;;;;18.23;8.77;;;;;;;10.29;100.00;98734.34;5011595;28;20026;-79
2021/10/09 01:31:07;;;;;;;19.20;9.18;;;;;;;10.31;100.00;98729.44;5012314;28;20365;-79
2021/10/09 01:33:33;;;;;;;15.93;8.73;;;;;;;10.28;100.00;98729.16;5012311;28;20040;-80
2021/10/09 01:35:58;;;;;;;15.48;8.75;;;;;;;10.23;100.00;98729.16;5012123;28;20026;-78
2021/10/09 01:38:25;;;;;;;15.73;8.68;;;;;;;10.21;100.00;98726.72;5012738;28;20042;-82
2021/10/09 01:40:52;;;;;;;18.95;9.60;;;;;;;10.11;100.00;98734.88;5013494;28;20030;-84
2021/10/09 01:43:19;;;;;;;14.77;8.63;;;;;;;9.99;100.00;98735.13;5014046;28;20065;-84
2021/10/09 01:45:46;;;;;;;19.00;8.93;;;;;;;9.89;100.00;98723.38;5013010;28;20036;-77
2021/10/09 01:48:12;;;;;;;21.50;9.10;;;;;;;9.95;100.00;98734.06;5010572;28;20101;-80
2021/10/09 01:50:38;;;;;;;24.52;10.02;;;;;;;9.95;100.00;98731.31;5011129;28;20030;-79
2021/10/09 01:53:07;;;;;;;17.88;9.98;;;;;;;10.02;100.00;98728.31;5011052;28;20032;-79
2021/10/09 01:55:39;;;;;;;20.00;9.20;;;;;;;10.00;100.00;98720.38;5010498;28;20423;-77
2021/10/09 01:58:06;;;;;;;17.30;9.70;;;;;;;9.91;100.00;98726.66;5010170;28;20034;-79
2021/10/09 02:00:33;;;;;;;17.73;9.57;;;;;;;9.85;100.00;98727.75;5011508;28;20037;-78
2021/10/09 02:03:04;;;;;;;17.27;9.57;;;;;;;9.80;100.00;98725.00;5011753;28;20029;-77
2021/10/09 02:05:31;;;;;;;14.90;9.75;;;;;;;9.87;100.00;98722.81;5011726;28;20475;-79
2021/10/09 02:07:56;;;;;;;23.60;9.93;;;;;;;9.91;100.00;98723.91;5012121;28;20080;-81
2021/10/09 02:10:22;;;;;;;19.55;9.55;;;;;;;9.88;100.00;98710.81;5011481;28;20478;-79
2021/10/09 02:12:48;;;;;;;25.42;10.15;;;;;;;9.85;100.00;98714.91;5011791;28;20029;-80
2021/10/09 02:15:20;;;;;;;19.52;10.50;;;;;;;9.76;100.00;98721.19;5011501;28;20038;-80
2021/10/09 02:25:46;;;;;;;16.63;9.35;;;;;;;9.50;100.00;98710.19;5011833;28;20033;-78
2021/10/09 02:28:16;;;;;;;22.17;9.98;;;;;;;9.50;100.00;98706.66;5011708;28;20042;-80
2021/10/09 02:30:43;;;;;;;21.13;9.65;;;;;;;9.49;100.00;98711.28;5011369;28;20033;-79
2021/10/09 02:33:09;;;;;;;19.38;9.88;;;;;;;9.48;100.00;98706.09;5011471;28;20030;-78
2021/10/09 02:35:35;;;;;;;21.50;9.52;;;;;;;9.43;100.00;98704.16;5011320;28;20038;-79
2021/10/09 02:38:02;;;;;;;21.45;9.52;;;;;;;9.51;100.00;98700.94;5011612;28;20036;-79
2021/10/09 02:40:27;;;;;;;14.63;9.50;;;;;;;9.52;100.00;98701.75;5011155;28;20026;-79
2021/10/09 02:42:52;;;;;;;17.83;9.80;;;;;;;9.48;100.00;98701.47;5011320;28;20501;-80
2021/10/09 02:45:18;;;;;;;16.08;9.25;;;;;;;9.39;100.00;98703.09;5011279;28;20030;-81
2021/10/09 02:47:44;;;;;;;28.33;10.88;;;;;;;9.43;100.00;98700.66;5011616;28;20415;-80
2021/10/09 02:50:16;;;;;;;21.45;10.00;;;;;;;9.35;100.00;98701.97;5011014;28;20117;-79
2021/10/09 02:52:42;;;;;;;18.02;9.82;;;;;;;9.37;100.00;98698.97;5010954;28;20399;-79
2021/10/09 02:55:08;;;;;;;15.80;10.05;;;;;;;9.15;100.00;98697.25;5011063;28;20034;-79
2021/10/09 02:57:34;;;;;;;20.77;10.25;;;;;;;9.10;100.00;98701.91;5011148;28;20499;-78
2021/10/09 02:59:59;;;;;;;20.92;10.90;;;;;;;9.08;100.00;98701.34;5009605;28;20063;-79
2021/10/09 03:02:25;;;;;;;24.52;10.55;;;;;;;8.95;100.00;98707.28;5011008;28;20034;-79
2021/10/09 03:04:50;;;;;;;15.48;9.93;;;;;;;8.89;100.00;98719.28;5010812;28;20152;-79
2021/10/09 03:07:15;;;;;;;17.65;10.50;;;;;;;8.78;100.00;98712.09;5010963;28;20033;-78
2021/10/09 03:09:41;;;;;;;19.80;9.88;;;;;;;8.82;100.00;98713.22;5010986;28;20112;-82
2021/10/09 03:12:06;;;;;;;18.52;10.20;;;;;;;8.75;100.00;98712.63;5010870;28;20054;-80
2021/10/09 03:14:34;;;;;;;22.23;11.15;;;;;;;8.64;100.00;98705.50;5010971;28;20939;-81
2021/10/09 03:17:00;;;;;;;17.55;10.05;;;;;;;8.74;100.00;98716.47;5010713;28;20116;-79
2021/10/09 03:19:25;;;;;;;22.92;12.57;;;;;;;8.80;100.00;98704.50;5010694;28;20144;-78
2021/10/09 03:21:51;;;;;;;19.05;9.77;;;;;;;8.93;100.00;98712.16;5009111;28;20057;-79
2021/10/09 03:24:16;;;;;;;24.00;10.40;;;;;;;9.09;100.00;98711.16;5010858;28;20036;-79
2021/10/09 03:26:41;;;;;;;19.20;9.15;;;;;;;9.20;100.00;98707.41;5010867;28;20103;-79
2021/10/09 03:29:07;;;;;;;22.00;9.80;;;;;;;9.40;100.00;98701.97;5010739;28;20450;-79
2021/10/09 03:31:32;;;;;;;17.70;9.85;;;;;;;9.44;100.00;98711.28;5010977;28;20476;-80
2021/10/09 03:33:58;;;;;;;15.25;9.38;;;;;;;9.48;100.00;98696.00;5010784;28;20107;-79
2021/10/09 03:36:23;;;;;;;23.35;9.35;;;;;;;9.58;98.66;98701.50;5011915;28;20057;-79
2021/10/09 03:38:48;;;;;;;18.90;8.98;;;;;;;9.64;98.16;98700.41;5014912;28;20030;-80
2021/10/09 03:41:15;;;;;;;19.17;7.75;;;;;;;9.63;94.09;98700.66;5013158;28;20037;-78
2021/10/09 03:43:43;;;;;;;16.65;8.20;;;;;;;9.82;91.91;98707.25;5014636;28;20022;-78
2021/10/09 03:53:51;;;;;;;15.70;6.97;;;;;;;9.69;91.01;98702.31;5014307;28;20108;-78
2021/10/09 03:56:16;;;;;;;17.35;7.80;;;;;;;9.68;90.79;98706.94;5013772;28;20810;-79
2021/10/09 03:58:42;;;;;;;15.43;6.88;;;;;;;9.64;89.09;98692.22;5045668;28;20041;-78
2021/10/09 04:01:07;;;;;;;16.98;7.13;;;;;;;9.88;86.85;98708.91;5012119;28;20033;-78
2021/10/09 04:03:33;;;;;;;14.18;7.07;;;;;;;9.88;86.86;98705.34;5014103;28;20030;-78
2021/10/09 04:05:58;;;;;;;13.27;6.72;;;;;;;9.94;85.76;98705.06;5014104;28;20470;-77
2021/10/09 04:08:23;;;;;;;19.60;6.95;;;;;;;9.96;85.06;98693.88;5014103;28;20027;-78
2021/10/09 04:10:49;;;;;;;13.35;6.97;;;;;;;9.92;85.02;98695.50;5013863;28;20164;-77
2021/10/09 04:13:14;;;;;;;14.05;6.63;;;;;;;10.02;84.31;98699.06;5012153;28;20034;-77
2021/10/09 04:15:39;;;;;;;19.15;6.88;;;;;;;9.99;84.27;98690.59;5014091;28;20026;-82
2021/10/09 04:18:05;;;;;;;14.18;6.63;;;;;;;10.07;83.55;98695.50;5014962;28;20449;-81
2021/10/09 04:20:30;;;;;;;16.63;6.40;;;;;;;9.99;84.02;98679.66;5014806;28;20029;-76
2021/10/09 04:22:56;;;;;;;23.38;6.60;;;;;;;9.97;84.21;98681.84;5015026;28;20033;-78
2021/10/09 04:25:21;;;;;;;26.08;11.52;;;;;;;9.90;84.91;98675.84;5045403;28;20033;-77
2021/10/09 04:27:46;;;;;;;17.73;9.07;;;;;;;9.90;84.66;98684.03;5013573;28;20030;-78
2021/10/09 04:30:12;;;;;;;17.40;6.95;;;;;;;9.82;85.82;98690.03;5044909;28;20026;-79
2021/10/09 04:32:37;;;;;;;24.85;9.10;;;;;;;9.76;86.03;98691.13;5013176;28;20120;-78
2021/10/09 04:35:03;;;;;;;18.10;7.80;;;;;;;9.58;87.13;98676.91;5014226;28;20026;-80
2021/10/09 04:37:28;;;;;;;23.48;10.60;;;;;;;9.58;87.07;98676.91;5011998;28;20033;-79
2021/10/09 04:39:54;;;;;;;15.30;7.10;;;;;;;9.45;88.17;98682.91;5013810;28;20056;-81
2021/10/09 04:42:19;;;;;;;24.17;13.07;;;;;;;9.53;87.26;98685.09;5013228;28;20030;-76
2021/10/09 04:44:45;;;;;;;15.82;8.43;;;;;;;9.46;87.49;98681.78;5013414;28;20032;-81
2021/10/09 04:47:10;;;;;;;21.38;9.55;;;;;;;9.32;87.88;98680.69;5012450;28;20383;-80
2021/10/09 04:49:36;;;;;;;15.70;6.72;;;;;;;9.25;88.31;98691.03;5013537;28;20026;-80
2021/10/09 04:52:01;;;;;;;18.30;8.98;;;;;;;9.20;88.29;98695.66;5013653;28;20434;-80
2021/10/09 04:54:27;;;;;;;69.88;32.28;;;;;;;9.16;87.54;98695.38;5013860;28;20041;-81
2021/10/09 04:56:52;;;;;;;19.50;11.13;;;;;;;9.19;86.75;98696.72;5026092;28;20029;-83
2021/10/09 04:59:18;;;;;;;25.95;12.90;;;;;;;9.28;84.80;98687.75;5034204;28;20025;-80
2021/10/09 05:01:43;;;;;;;15.63;7.47;;;;;;;9.19;85.82;98694.81;5034272;28;20025;-81
2021/10/09 05:04:08;;;;;;;30.92;11.43;;;;;;;9.12;85.66;98686.06;5033709;28;20025;-80
2021/10/09 05:06:34;;;;;;;61.63;37.25;;;;;;;9.10;85.21;98690.97;5034073;28;20083;-81
2021/10/09 05:08:59;;;;;;;26.35;13.10;;;;;;;9.02;85.67;98702.41;5033056;28;20401;-77
2021/10/09 05:11:25;;;;;;;16.38;7.05;;;;;;;8.98;85.47;98701.31;5032537;28;20033;-79
2021/10/09 05:13:50;;;;;;;17.48;8.10;;;;;;;8.96;85.83;98708.91;5033323;28;20030;-79
2021/10/09 05:16:16;;;;;;;21.50;10.77;;;;;;;8.91;85.82;98709.72;5034503;28;20108;-76
2021/10/09 05:18:41;;;;;;;17.55;7.13;;;;;;;8.86;85.62;98704.25;5031463;28;20068;-84
2021/10/09 05:21:08;;;;;;;17.15;7.03;;;;;;;8.93;83.59;98715.72;5028392;28;20033;-78
2021/10/09 05:23:34;;;;;;;13.73;7.50;;;;;;;9.01;83.05;98709.78;5033247;28;20044;-73
2021/10/09 05:25:59;;;;;;;19.50;7.25;;;;;;;8.96;83.28;98711.63;5017026;28;20026;-74
2021/10/09 05:28:58;;;;;;;16.67;7.35;;;;;;;9.02;83.01;98726.97;5010561;28;20025;-74
2021/10/09 05:33:49;;;;;;;15.75;6.82;;;;;;;9.07;81.30;98716.91;5017242;28;20022;-81
2021/10/09 05:36:15;;;;;;;14.02;6.95;;;;;;;9.16;80.36;98733.56;5013903;28;20108;-82
2021/10/09 05:38:40;;;;;;;14.95;7.10;;;;;;;9.18;79.27;98723.19;5015823;28;20475;-81
2021/10/09 05:41:06;;;;;;;22.02;7.05;;;;;;;9.27;77.74;98713.41;5014409;28;20033;-80
2021/10/09 05:43:32;;;;;;;26.05;7.28;;;;;;;9.34;77.67;98724.06;5015650;28;20030;-83
2021/10/09 05:45:58;;;;;;;23.70;7.80;;;;;;;9.40;77.53;98720.25;5015616;28;20026;-82
2021/10/09 05:48:24;;;;;;;14.43;6.50;;;;;;;9.49;76.87;98735.06;5023296;28;20518;-79
2021/10/09 05:53:30;;;;;;;22.40;7.45;;;;;;;9.54;75.25;98724.97;5031128;28;20613;-79
2021/10/09 05:55:59;;;;;;;21.17;6.65;;;;;;;9.59;75.97;98735.88;5031405;28;20496;-79
2021/10/09 05:58:46;;;;;;;14.55;6.93;;;;;;;9.64;74.92;98727.72;5034608;28;20030;-83
2021/10/09 06:01:40;;;;;;;15.70;7.18;;;;;;;9.74;74.41;98731.56;5037529;28;20074;-81
2021/10/09 06:48:09;;;;;;;17.63;6.05;;;;;;;11.63;65.24;98779.97;5041871;28;20071;-85
2021/10/09 07:01:20;;;;;;;17.15;6.85;;;;;;;12.81;61.49;98787.13;5016177;28;20085;-80
2021/10/09 07:03:46;;;;;;;19.05;6.93;;;;;;;13.53;59.31;98791.56;5018091;28;20021;-78
2021/10/09 07:06:15;;;;;;;17.60;6.78;;;;;;;14.22;57.42;98781.81;5017926;28;20026;-80
2021/10/09 07:08:40;;;;;;;17.98;6.60;;;;;;;14.74;54.71;98791.72;5015760;28;20129;-82
2021/10/09 07:11:07;;;;;;;16.45;7.15;;;;;;;14.45;54.45;98786.41;5019085;28;20108;-78
2021/10/09 07:13:33;;;;;;;13.65;6.45;;;;;;;14.05;56.14;98798.00;5019493;28;20034;-80
2021/10/09 07:15:58;;;;;;;13.98;7.05;;;;;;;14.22;55.80;98796.38;5023131;28;20022;-82
2021/10/09 07:18:23;;;;;;;20.33;6.57;;;;;;;13.65;57.58;98802.13;5028994;28;20027;-80
2021/10/09 07:20:49;;;;;;;15.45;7.45;;;;;;;13.75;57.20;98799.25;5027029;28;20042;-82
2021/10/09 07:23:14;;;;;;;23.48;7.72;;;;;;;13.96;57.36;98792.38;5033798;28;20091;-81
2021/10/09 07:25:40;;;;;;;21.98;6.75;;;;;;;14.33;55.30;98788.81;5040538;28;20029;-78
2021/10/09 07:28:05;;;;;;;15.80;7.22;;;;;;;14.23;56.15;98794.44;5038243;28;20133;-80
2021/10/09 07:30:31;;;;;;;13.02;6.95;;;;;;;14.47;55.33;98795.22;5046513;28;20029;-74
2021/10/09 07:32:57;;;;;;;16.70;7.20;;;;;;;14.96;54.21;98784.44;5043109;28;20029;-74
2021/10/09 07:35:23;;;;;;;20.23;7.70;;;;;;;15.53;52.50;98790.53;5043024;28;20022;-73
2021/10/09 07:37:49;;;;;;;17.58;7.35;;;;;;;15.91;52.03;98802.94;5039103;28;21111;-74
2021/10/09 07:40:15;;;;;;;17.77;7.25;;;;;;;16.73;50.02;98811.00;5041540;28;20036;-74
2021/10/09 07:42:40;;;;;;;12.57;7.07;;;;;;;16.84;48.32;98801.34;5041881;28;20106;-74
2021/10/09 07:45:06;;;;;;;19.98;7.78;;;;;;;16.94;48.74;98806.59;5041780;28;20132;-74
2021/10/09 07:47:32;;;;;;;15.20;7.18;;;;;;;17.03;49.13;98798.34;5041237;28;20025;-74
2021/10/09 07:49:57;;;;;;;21.05;7.22;;;;;;;17.64;47.47;98814.13;5041998;28;20037;-74
2021/10/09 07:52:22;;;;;;;27.15;9.02;;;;;;;16.93;48.75;98810.50;5042993;28;20032;-74
2021/10/09 07:54:48;;;;;;;19.42;7.70;;;;;;;17.08;47.95;98806.50;5041416;28;20071;-74
2021/10/09 07:57:13;;;;;;;19.65;7.00;;;;;;;16.67;48.92;98806.72;5041607;28;20029;-74
2021/10/09 07:59:39;;;;;;;18.50;8.05;;;;;;;17.67;47.50;98801.63;5042876;28;20063;-74
2021/10/09 08:02:05;;;;;;;18.88;8.15;;;;;;;17.60;47.00;98797.34;5041142;28;20029;-73
2021/10/09 08:04:30;;;;;;;17.40;8.00;;;;;;;16.95;47.57;98797.16;5041816;28;20120;-73
2021/10/09 08:06:59;;;;;;;15.63;8.30;;;;;;;17.43;47.17;98808.31;5038848;28;20124;-74
2021/10/09 08:09:31;;;;;;;18.08;7.90;;;;;;;17.24;47.19;98798.63;5036302;28;20025;-73
2021/10/09 08:11:56;;;;;;;14.38;7.00;;;;;;;17.78;45.62;98823.13;5048681;28;20140;-78
2021/10/09 08:14:22;;;;;;;15.85;7.45;;;;;;;16.94;47.90;98812.13;5056114;28;20021;-79
2021/10/09 08:16:47;;;;;;;17.50;8.38;;;;;;;15.67;49.97;98827.19;5058055;28;20049;-79
2021/10/09 08:19:13;;;;;;;15.30;7.55;;;;;;;15.83;50.52;98831.28;5054585;28;20017;-79
2021/10/09 08:21:43;;;;;;;14.73;8.10;;;;;;;14.78;54.55;98826.63;5043858;28;20056;-78
2021/10/09 08:40:23;;;;;;;20.92;8.02;;;;;;;18.06;45.09;98834.75;5045575;28;20084;-79
2021/10/09 08:42:48;;;;;;;14.43;7.55;;;;;;;18.18;44.31;98832.19;5043297;28;20021;-79
2021/10/09 08:45:14;;;;;;;17.08;8.52;;;;;;;19.09;41.69;98827.31;5046545;28;20037;-80
2021/10/09 08:47:39;;;;;;;16.10;8.52;;;;;;;18.59;43.02;98832.56;5048985;28;20368;-79
2021/10/09 08:50:08;;;;;;;20.58;9.18;;;;;;;18.65;42.90;98838.75;5052381;28;20033;-80
2021/10/09 08:52:33;;;;;;;14.70;7.95;;;;;;;19.47;41.27;98832.13;5040816;28;20040;-79
2021/10/09 08:55:18;;;;;;;15.75;8.05;;;;;;;19.08;41.33;98831.22;5047024;28;20025;-77
2021/10/09 08:57:43;;;;;;;18.52;7.97;;;;;;;19.41;41.17;98839.81;5042752;28;20021;-78
2021/10/09 09:00:11;;;;;;;14.88;7.38;;;;;;;19.38;40.54;98839.63;5045396;28;20036;-79
2021/10/09 09:02:45;;;;;;;19.80;8.60;;;;;;;19.49;41.23;98841.75;5048730;28;20036;-77
2021/10/09 09:09:03;;;;;;;22.77;8.50;;;;;;;18.56;43.10;98838.78;5042321;28;20040;-78
2021/10/09 09:41:15;;;;;;;16.23;8.18;;;;;;;17.88;44.55;98825.59;5059868;28;20043;-83
2021/10/09 09:43:44;;;;;;;23.52;8.25;;;;;;;17.88;44.57;98824.78;5046211;28;20033;-81
2021/10/09 09:46:15;;;;;;;18.20;8.57;;;;;;;17.38;45.37;98829.78;5049294;28;20048;-78
2021/10/09 09:48:46;;;;;;;21.90;10.40;;;;;;;17.29;45.75;98828.91;5044859;28;20045;-74
2021/10/09 09:51:13;;;;;;;27.27;11.40;;;;;;;17.07;45.67;98833.34;5053732;28;20079;-79
2021/10/09 09:53:40;;;;;;;18.50;9.18;;;;;;;15.25;49.22;98831.03;5051627;28;20077;-79
2021/10/09 09:56:08;;;;;;;16.05;8.88;;;;;;;16.25;48.72;98832.84;5036368;28;20437;-78
2021/10/09 09:58:38;;;;;;;17.45;7.97;;;;;;;15.84;48.79;98830.16;5035586;28;20111;-79
2021/10/09 10:01:05;;;;;;;20.80;7.60;;;;;;;16.99;46.88;98831.34;5038255;28;20055;-78
2021/10/09 10:03:32;;;;;;;18.90;8.75;;;;;;;18.05;44.30;98841.44;5032295;28;20029;-80
2021/10/09 10:05:58;;;;;;;16.95;8.85;;;;;;;17.93;43.97;98838.47;5032768;28;20091;-78
2021/10/09 10:08:25;;;;;;;19.75;8.27;;;;;;;18.29;42.76;98824.38;5040576;28;20462;-78
2021/10/09 10:10:53;;;;;;;16.17;7.85;;;;;;;17.43;44.53;98833.22;5038455;28;20021;-77
2021/10/09 10:13:22;;;;;;;19.38;8.68;;;;;;;17.27;46.37;98842.22;5037487;28;20024;-77
2021/10/09 10:15:50;;;;;;;21.15;9.13;;;;;;;17.05;46.11;98821.78;5036755;28;20059;-77
2021/10/09 10:18:44;;;;;;;22.15;8.90;;;;;;;15.87;49.44;98839.75;5044070;28;20022;-78
2021/10/09 10:21:10;;;;;;;23.98;9.00;;;;;;;16.46;48.62;98836.75;5032890;28;20058;-77
2021/10/09 10:23:46;;;;;;;20.33;8.82;;;;;;;17.39;46.04;98836.91;5037557;28;20414;-77
2021/10/09 10:26:20;;;;;;;20.85;8.20;;;;;;;17.31;45.88;98832.19;5040195;28;20029;-77
2021/10/09 10:28:46;;;;;;;19.23;9.10;;;;;;;17.23;46.54;98844.03;5042701;28;20041;-76
2021/10/09 10:31:11;;;;;;;24.10;10.75;;;;;;;15.99;48.88;98829.00;5043058;28;20021;-79
2021/10/09 10:33:42;;;;;;;20.23;8.85;;;;;;;16.80;48.07;98827.13;5042783;28;20770;-78
2021/10/09 10:36:11;;;;;;;17.30;9.63;;;;;;;16.74;47.47;98817.34;5035939;28;20021;-77
2021/10/09 10:38:43;;;;;;;16.15;8.77;;;;;;;15.25;50.80;98830.22;5039285;28;20032;-80
2021/10/09 10:41:12;;;;;;;18.52;8.30;;;;;;;15.96;49.77;98822.16;5038383;28;20060;-79
2021/10/09 10:43:46;;;;;;;19.63;8.77;;;;;;;15.63;51.12;98825.38;5041545;28;20025;-81
2021/10/09 10:49:00;;;;;;;19.65;7.97;;;;;;;15.77;49.58;98821.47;5044310;28;20139;-77
2021/10/09 10:51:37;;;;;;;17.10;8.15;;;;;;;16.03;49.37;98819.81;5030488;28;20076;-78
2021/10/09 10:54:10;;;;;;;19.27;9.30;;;;;;;15.44;51.99;98820.72;5036035;28;20497;-77
2021/10/09 10:56:36;;;;;;;16.52;8.05;;;;;;;16.08;49.94;98821.63;5036250;28;20124;-77
2021/10/09 10:59:27;;;;;;;18.63;9.52;;;;;;;15.63;50.91;98815.13;5037174;28;20021;-77
2021/10/09 11:02:16;;;;;;;18.23;8.40;;;;;;;15.37;50.64;98833.28;5040425;28;20021;-77
2021/10/09 11:04:48;;;;;;;15.80;8.15;;;;;;;14.61;53.30;98820.84;5040097;28;20036;-79
2021/10/09 11:07:14;;;;;;;18.60;9.10;;;;;;;14.20;55.11;98817.03;5038330;28;20087;-79
2021/10/09 11:09:41;;;;;;;17.50;9.18;;;;;;;13.74;56.36;98816.88;5041436;28;20024;-78
2021/10/09 11:12:32;;;;;;;20.52;8.73;;;;;;;13.87;56.48;98816.97;5038423;28;20470;-78
2021/10/09 11:15:20;;;;;;;20.33;8.73;;;;;;;14.01;56.12;98817.03;5030880;28;20044;-77
2021/10/09 11:17:59;;;;;;;14.40;8.07;;;;;;;14.10;56.71;98825.44;5029419;28;20056;-77
2021/10/09 11:20:30;;;;;;;19.20;8.65;;;;;;;13.72;57.13;98816.34;5031831;28;20390;-78
2021/10/09 11:23:02;;;;;;;17.88;8.45;;;;;;;13.58;57.56;98818.16;5029882;28;20021;-77
2021/10/09 11:25:40;;;;;;;21.25;8.00;;;;;;;13.68;57.40;98813.38;5035278;28;20039;-78
2021/10/09 11:28:19;;;;;;;19.63;8.93;;;;;;;13.66;56.66;98823.81;5033202;28;20021;-80
2021/10/09 11:30:44;;;;;;;22.50;9.05;;;;;;;13.59;57.28;98825.31;5031758;28;20030;-84
2021/10/09 11:33:10;;;;;;;21.45;10.07;;;;;;;13.86;56.75;98825.50;5032560;28;20032;-78
2021/10/09 11:35:38;;;;;;;16.02;7.90;;;;;;;13.77;55.78;98819.84;5030413;28;20095;-78
2021/10/09 11:38:17;;;;;;;19.95;8.95;;;;;;;13.71;56.93;98812.78;5031967;28;20025;-80
2021/10/09 11:40:47;;;;;;;16.40;8.48;;;;;;;13.63;56.50;98816.16;5031542;28;20038;-78
2021/10/09 11:45:45;;;;;;;16.98;8.88;;;;;;;13.76;56.95;98818.19;5032446;28;20033;-76
2021/10/09 11:56:24;;;;;;;16.77;8.32;;;;;;;13.81;57.29;98811.84;5012480;28;20037;-78
2021/10/09 11:58:59;;;;;;;15.65;7.38;;;;;;;13.75;57.22;98802.81;5020959;28;20438;-78
2021/10/09 12:01:38;;;;;;;24.73;9.43;;;;;;;13.83;57.29;98804.91;5021108;28;20061;-81
2021/10/09 12:04:23;;;;;;;21.45;8.70;;;;;;;13.75;57.11;98805.56;5029981;28;20390;-81
2021/10/09 12:07:26;;;;;;;27.45;9.20;;;;;;;13.69;57.97;98800.44;5039336;28;20022;-84
2021/10/09 12:09:46;;;;;;;17.27;8.35;;;;;;;13.54;57.86;98815.19;5041010;28;20041;-81
2021/10/09 12:12:13;;;;;;;16.95;9.15;;;;;;;13.44;59.85;98806.25;5041687;28;20044;-79
2021/10/09 12:14:38;;;;;;;25.17;11.35;;;;;;;13.78;59.32;98806.91;5040183;28;20082;-76
2021/10/09 12:17:04;;;;;;;19.50;9.10;;;;;;;13.80;58.31;98783.50;5036090;28;20042;-77
2021/10/09 12:19:30;;;;;;;21.88;9.73;;;;;;;13.59;58.49;98781.31;5036720;28;20033;-73
2021/10/09 12:22:03;;;;;;;17.77;8.43;;;;;;;13.55;60.50;98785.75;5038712;28;20493;-79
2021/10/09 12:24:34;;;;;;;20.23;8.73;;;;;;;13.62;61.94;98776.06;5053077;28;20139;-79
2021/10/09 12:27:18;;;;;;;20.63;9.10;;;;;;;13.54;62.19;98784.94;5052573;28;20111;-76
2021/10/09 12:30:04;;;;;;;16.35;9.00;;;;;;;13.58;61.43;98772.25;5050241;28;20029;-76
2021/10/09 12:32:37;;;;;;;19.42;8.32;;;;;;;13.73;59.24;98774.78;5050949;28;20028;-73
2021/10/09 12:35:24;;;;;;;18.55;9.82;;;;;;;14.00;58.74;98779.66;5050603;28;20028;-75
2021/10/09 12:38:06;;;;;;;20.45;9.57;;;;;;;13.70;59.60;98774.56;5040170;28;20060;-79
2021/10/09 12:40:45;;;;;;;22.75;9.90;;;;;;;13.74;56.95;98779.19;5042486;28;20022;-77
2021/10/09 12:43:13;;;;;;;19.27;8.68;;;;;;;13.69;58.39;98776.50;5031383;28;20422;-76
2021/10/09 12:45:40;;;;;;;20.30;9.95;;;;;;;13.74;57.80;98767.38;5032673;28;20032;-74
2021/10/09 12:48:06;;;;;;;19.55;8.82;;;;;;;13.73;57.12;98768.47;5031768;28;20033;-75
2021/10/09 12:50:35;;;;;;;18.73;8.43;;;;;;;13.80;59.66;98755.19;5029795;28;20050;-74
2021/10/09 12:53:01;;;;;;;13.07;7.82;;;;;;;13.80;57.26;98757.94;5031175;28;20041;-78
2021/10/09 12:55:28;;;;;;;19.90;7.95;;;;;;;13.61;58.25;98751.59;5031852;28;20049;-74
2021/10/09 12:58:01;;;;;;;25.77;9.65;;;;;;;13.46;58.89;98751.78;5028963;28;20486;-77
2021/10/09 13:00:28;;;;;;;18.25;8.45;;;;;;;13.65;58.95;98763.66;5031075;28;20471;-76
2021/10/09 13:02:54;;;;;;;18.08;8.82;;;;;;;13.80;58.93;98761.50;5031246;28;20032;-74
2021/10/09 13:05:25;;;;;;;18.75;8.32;;;;;;;13.84;57.75;98758.97;5031203;28;20052;-78
2021/10/09 13:07:51;;;;;;;19.05;8.40;;;;;;;13.64;57.07;98771.06;5029649;28;20313;-74
2021/10/09 13:10:21;;;;;;;18.90;8.70;;;;;;;13.67;57.56;98755.91;5031165;28;20021;-74
2021/10/09 13:12:48;;;;;;;17.00;7.72;;;;;;;13.68;57.18;98752.88;5041459;28;20033;-73
2021/10/09 13:15:17;;;;;;;13.68;7.80;;;;;;;13.84;56.97;98759.81;5050437;28;20475;-75
2021/10/09 13:17:43;;;;;;;18.75;8.23;;;;;;;13.66;56.44;98765.25;5030923;28;20029;-77
2021/10/09 13:20:09;;;;;;;30.08;8.77;;;;;;;13.45;56.81;98752.91;5029206;28;20116;-73
2021/10/09 13:22:35;;;;;;;15.25;7.65;;;;;;;13.51;57.21;98752.53;5029501;28;20569;-74
2021/10/09 13:25:00;;;;;;;17.98;7.95;;;;;;;13.47;57.67;98750.69;5030733;28;20032;-75
2021/10/09 13:27:25;;;;;;;17.85;7.38;;;;;;;13.36;57.70;98733.50;5030811;28;20116;-74
2021/10/09 13:29:51;;;;;;;13.98;7.90;;;;;;;13.49;56.03;98752.03;5030134;28;20406;-74
2021/10/09 13:32:17;;;;;;;20.45;7.75;;;;;;;13.69;57.33;98754.50;5030163;28;20100;-73
2021/10/09 13:34:43;;;;;;;18.02;9.13;;;;;;;13.62;57.78;98770.56;5030169;28;20033;-73
2021/10/09 13:37:08;;;;;;;18.35;8.38;;;;;;;13.28;57.60;98750.66;5016208;28;20033;-75
2021/10/09 13:39:34;;;;;;;17.15;7.95;;;;;;;12.90;58.55;98757.91;5011494;28;20018;-75
2021/10/09 13:41:59;;;;;;;17.90;8.23;;;;;;;12.86;57.75;98751.34;5018947;28;20116;-74
2021/10/09 13:44:24;;;;;;;23.40;9.30;;;;;;;12.94;58.65;98760.91;5030210;28;20025;-74
2021/10/09 13:46:50;;;;;;;18.63;8.80;;;;;;;13.06;58.55;98750.31;5014551;28;20026;-74